Latest Weather Observations for Armidale Airport

IDN60801

Issued at 9:35 am EDT Sunday 26 October 2014 (issued every 30 minutes, with the page automatically refreshed every 10 minutes)

About weather observations | Map of weather stations | Latest weather observations for NSW | Other Formats
Station Details ID: 056238 Name: ARMIDALE AIRPORT AWS Lat: -30.53 Lon: 151.62 Height: 1079.0 m
Data from the previous 72 hours. | See also: Recent months for locations in New South Wales
Date/Time
EDT
Temp
°C
App
Temp
°C
Dew
Point
Rel
Hum
%
Delta-T
°C
Wind Press
QNH
hPa
Press
MSL
hPa
Rain
since 9 am
mm
Dir
 
Spd
km/h
Gust
km/h
Spd
kts
Gust
kts
26/09:30am 26.0 18.8 5.0 26 11.2 NW 32 43 17 23 1019.1 1016.0 0.0
26/09:00am 25.7 20.1 5.3 27 10.9 NNW 24 33 13 18 1019.1 1016.0 0.0
26/08:30am 24.5 18.5 5.3 29 10.2 NNW 26 35 14 19 1019.3 1016.1 0.0
26/08:00am 23.5 18.8 5.9 32 9.4 NNW 20 24 11 13 1019.1 1016.0 0.0
26/07:30am 19.1 19.0 9.3 53 5.4 CALM 0 0 0 0 1019.1 1016.0 0.0
26/07:00am 16.3 14.9 9.0 62 4.0 WNW 6 7 3 4 1019.1 1016.0 0.0
26/06:30am 15.4 13.6 7.9 61 4.0 W 7 7 4 4 1019.0 1015.9 0.0
26/06:00am 15.9 15.2 8.4 61 4.0 W 2 7 1 4 1019.0 1015.9 0.0
26/05:30am 16.4 14.1 8.9 61 4.1 WSW 11 15 6 8 1019.0 1015.9 0.0
26/05:00am 15.1 12.2 8.3 64 3.6 WNW 13 17 7 9 1019.0 1015.9 0.0
26/04:30am 15.1 11.2 8.6 65 3.5 W 19 22 10 12 1019.4 1016.2 0.0
26/04:00am 16.6 14.5 8.3 58 4.5 N 9 11 5 6 1018.9 1015.8 0.0
26/03:30am 15.8 13.1 9.0 64 3.7 NNE 13 15 7 8 1018.9 1015.8 0.0
26/03:00am 13.4 10.3 7.4 67 3.1 NNE 13 13 7 7 1019.1 1016.0 0.0
26/02:30am 14.6 11.6 7.9 64 3.5 NE 13 15 7 8 1019.5 1016.4 0.0
26/02:00am 14.3 10.7 6.9 61 3.8 ENE 15 15 8 8 1020.0 1016.9 0.0
26/01:30am 14.7 11.5 7.0 60 4.0 ENE 13 15 7 8 1020.6 1017.5 0.0
26/01:00am 14.3 11.0 6.6 60 3.9 NNE 13 15 7 8 1020.9 1017.8 0.0
26/12:30am 15.1 11.9 6.9 58 4.3 NE 13 15 7 8 1021.4 1018.3 0.0
26/12:00am 15.8 12.6 7.0 56 4.6 NNE 13 15 7 8 1021.6 1018.5 0.0
 
Date/Time
EDT
Temp
°C
App
Temp
°C
Dew
Point
Rel
Hum
%
Delta-T
°C
Wind Press
QNH
hPa
Press
MSL
hPa
Rain
since 9 am
mm
Dir
 
Spd
km/h
Gust
km/h
Spd
kts
Gust
kts
25/11:30pm 15.4 12.5 6.4 55 4.6 ENE 11 13 6 7 1021.9 1018.9 0.0
25/11:00pm 18.1 15.6 6.6 47 6.0 ESE 9 13 5 7 1022.0 1019.0 0.0
25/10:30pm 18.9 13.9 6.4 44 6.6 S 22 30 12 16 1022.6 1019.5 0.0
25/10:00pm 18.9 15.3 5.0 40 7.1 ESE 13 17 7 9 1021.8 1018.7 0.0
25/09:30pm 19.6 16.0 4.9 38 7.6 ESE 13 17 7 9 1021.9 1018.9 0.0
25/09:00pm 19.3 17.1 5.4 40 7.2 E 6 13 3 7 1021.8 1018.7 0.0
25/08:30pm 21.1 16.9 5.5 36 8.2 SSW 17 20 9 11 1021.9 1018.9 0.0
25/08:09pm 21.6 14.5 5.5 35 8.5 SW 32 50 17 27 1021.9 1018.9 0.0
25/08:02pm 21.9 13.8 5.3 34 8.7 WSW 37 50 20 27 1021.8 1018.7 0.0
25/08:00pm 22.2 14.7 4.7 32 9.1 S 33 69 18 37 1021.9 1018.9 0.0
25/07:57pm 23.7 16.6 3.6 27 10.3 SSE 30 67 16 36 1021.5 1018.4 0.0
25/07:54pm 23.9 17.0 2.7 25 10.7 S 28 32 15 17 1021.3 1018.2 0.0
25/07:30pm 23.0 20.3 3.5 28 10.0 S 7 9 4 5 1020.4 1017.3 0.0
25/07:00pm 23.4 19.8 2.8 26 10.4 SSW 11 13 6 7 1019.9 1016.8 0.0
25/06:30pm 24.4 20.3 2.5 24 11.1 SW 13 19 7 10 1019.8 1016.7 0.0
25/06:00pm 26.4 21.2 2.3 21 12.3 SW 19 24 10 13 1019.4 1016.2 0.0
25/05:30pm 27.0 21.4 1.4 19 12.9 SW 20 28 11 15 1019.5 1016.4 0.0
25/05:00pm 25.8 20.3 1.8 21 12.1 S 20 28 11 15 1019.6 1016.5 0.0
25/04:30pm 27.2 20.3 0.1 17 13.4 S 26 35 14 19 1019.6 1016.5 0.0
25/04:00pm 27.8 20.6 0.5 17 13.6 S 28 41 15 22 1019.6 1016.5 0.0
25/03:30pm 27.8 21.1 1.3 18 13.4 SSW 26 39 14 21 1019.7 1016.6 0.0
25/03:00pm 27.7 20.3 2.0 19 13.2 S 30 43 16 23 1020.0 1016.9 0.0
25/02:30pm 28.1 20.3 1.6 18 13.5 SSW 32 46 17 25 1020.4 1017.3 0.0
25/02:00pm 28.1 21.0 1.6 18 13.5 SSW 28 44 15 24 1020.3 1017.2 0.0
25/01:43pm 27.8 20.5 -0.3 16 13.9 SSW 28 46 15 25 1020.5 1017.4 0.0
25/01:30pm 28.1 20.8 -0.1 16 14.0 SW 28 43 15 23 1020.7 1017.6 0.0
25/01:03pm 27.9 20.8 3.6 21 12.8 SSW 30 50 16 27 1020.8 1017.7 0.0
25/01:00pm 27.4 19.8 3.8 22 12.4 SSW 33 39 18 21 1020.9 1017.8 0.0
25/12:30pm 26.3 21.1 7.4 30 10.5 WSW 24 33 13 18 1021.4 1018.3 0.0
25/12:00pm 25.7 20.5 7.3 31 10.2 W 24 33 13 18 1021.7 1018.6 0.0
25/11:30am 24.8 19.1 8.3 35 9.3 W 28 35 15 19 1022.0 1019.0 0.0
25/11:00am 23.6 17.6 8.8 39 8.3 W 30 39 16 21 1022.2 1019.2 0.0
25/10:30am 22.8 17.0 8.1 39 8.2 W 28 39 15 21 1022.2 1019.2 0.0
25/10:00am 22.6 16.7 9.0 42 7.6 WNW 30 39 16 21 1022.4 1019.3 0.0
25/09:30am 21.7 15.8 8.9 44 7.2 WNW 30 41 16 22 1022.1 1019.1 0.0
25/09:00am 20.9 14.9 10.1 50 6.1 WNW 32 39 17 21 1022.0 1019.0 0.2
25/08:30am 19.6 13.6 10.0 54 5.4 WNW 32 41 17 22 1021.9 1018.9 0.2
25/08:00am 18.9 14.1 10.2 57 4.9 WNW 26 35 14 19 1021.9 1018.9 0.2
25/07:30am 17.7 13.3 10.3 62 4.2 NW 24 33 13 18 1021.6 1018.5 0.2
25/07:00am 16.5 12.4 10.1 66 3.6 WNW 22 30 12 16 1021.6 1018.5 0.2
25/06:30am 14.0 11.1 9.8 76 2.3 WNW 15 20 8 11 1021.3 1018.2 0.2
25/06:00am 14.1 11.1 9.1 72 2.7 WNW 15 19 8 10 1021.1 1018.1 0.2
25/05:30am 15.4 11.7 9.3 67 3.3 WNW 19 24 10 13 1020.9 1017.8 0.2
25/05:00am 15.5 11.8 9.4 67 3.3 NW 19 22 10 12 1020.6 1017.5 0.2
25/04:30am 16.0 12.1 9.4 65 3.6 NW 20 24 11 13 1020.4 1017.3 0.2
25/04:00am 15.8 12.9 9.5 66 3.4 WNW 15 19 8 10 1020.1 1017.0 0.2
25/03:30am 16.0 13.4 9.4 65 3.6 NW 13 19 7 10 1019.9 1016.8 0.2
25/03:00am 15.9 12.6 9.6 66 3.5 NW 17 20 9 11 1019.9 1016.8 0.2
25/02:30am 15.9 12.9 9.3 65 3.6 WNW 15 22 8 12 1020.1 1017.0 0.2
25/02:00am 15.1 12.4 8.8 66 3.4 NW 13 17 7 9 1020.4 1017.3 0.2
25/01:30am 17.2 13.2 8.9 58 4.5 NW 20 30 11 16 1020.8 1017.7 0.2
25/01:00am 17.9 14.0 8.5 54 5.1 NW 19 28 10 15 1020.9 1017.8 0.2
25/12:30am 18.1 14.3 9.2 56 4.9 NNW 19 24 10 13 1021.4 1018.3 0.2
25/12:00am 16.4 14.5 10.5 68 3.3 N 11 13 6 7 1021.4 1018.3 0.2
 
Date/Time
EDT
Temp
°C
App
Temp
°C
Dew
Point
Rel
Hum
%
Delta-T
°C
Wind Press
QNH
hPa
Press
MSL
hPa
Rain
since 9 am
mm
Dir
 
Spd
km/h
Gust
km/h
Spd
kts
Gust
kts
24/11:30pm 15.5 14.1 10.9 74 2.6 NE 9 13 5 7 1021.5 1018.4 0.2
24/11:00pm 15.9 13.7 10.7 71 2.9 NE 13 15 7 8 1021.7 1018.6 0.2
24/10:30pm 15.9 12.9 9.3 65 3.6 NE 15 17 8 9 1021.8 1018.7 0.2
24/10:00pm 15.7 12.8 8.2 61 4.0 NE 13 15 7 8 1021.9 1018.9 0.2
24/09:30pm 15.4 12.7 7.4 59 4.2 NE 11 13 6 7 1021.9 1018.9 0.2
24/09:00pm 16.6 13.3 6.4 51 5.3 N 13 13 7 7 1021.9 1018.9 0.2
24/08:30pm 19.1 16.5 5.9 42 6.9 N 9 11 5 6 1021.9 1018.9 0.2
24/08:00pm 20.7 17.8 6.3 39 7.6 NNW 11 13 6 7 1021.9 1018.9 0.2
24/07:30pm 20.5 17.6 6.4 40 7.5 NNW 11 13 6 7 1021.7 1018.6 0.2
24/07:00pm 20.9 18.5 6.8 40 7.5 NNW 9 13 5 7 1021.6 1018.5 0.2
24/06:30pm 23.5 21.7 7.2 35 8.9 NW 6 9 3 5 1021.4 1018.3 0.2
24/06:00pm 24.3 22.4 6.6 32 9.6 NW 6 7 3 4 1021.1 1018.1 0.2
24/05:30pm 24.4 22.1 5.7 30 10.0 N 7 17 4 9 1021.1 1018.1 0.2
24/05:00pm 24.9 21.5 6.1 30 10.2 W 13 15 7 8 1021.3 1018.2 0.2
24/04:30pm 24.7 22.2 6.4 31 10.0 W 9 15 5 8 1021.4 1018.3 0.2
24/04:00pm 24.2 21.6 6.0 31 9.8 W 9 15 5 8 1021.7 1018.6 0.2
24/03:30pm 24.4 21.6 5.2 29 10.2 W 9 19 5 10 1022.0 1019.0 0.2
24/03:00pm 24.5 21.8 5.8 30 10.0 WSW 9 20 5 11 1022.4 1019.3 0.2
24/02:30pm 22.9 19.6 6.2 34 9.0 WNW 13 19 7 10 1022.8 1019.8 0.2
24/02:00pm 22.1 18.4 6.3 36 8.4 W 15 20 8 11 1023.0 1020.0 0.2
24/01:30pm 22.2 18.5 6.4 36 8.5 WNW 15 17 8 9 1023.4 1020.3 0.2
24/01:00pm 23.3 18.5 5.7 32 9.4 WSW 20 30 11 16 1023.8 1020.8 0.2
24/12:30pm 24.1 19.6 6.8 33 9.4 W 20 24 11 13 1023.8 1020.8 0.2
24/12:00pm 23.6 19.9 6.4 33 9.3 WNW 15 24 8 13 1023.9 1020.9 0.2
24/11:30am 23.0 19.6 5.9 33 9.1 NNW 13 20 7 11 1024.2 1021.2 0.2
24/11:00am 22.3 17.6 5.3 33 8.9 W 19 26 10 14 1024.6 1021.6 0.2
24/10:30am 22.5 18.7 5.9 34 8.8 WSW 15 22 8 12 1024.9 1021.9 0.2
24/10:00am 22.9 19.9 5.8 33 9.1 WSW 11 20 6 11 1024.8 1021.8 0.2
24/09:30am 22.0 20.5 7.0 38 8.1 NNW 4 7 2 4 1024.9 1021.9 0.2
24/09:00am 20.5 18.3 5.3 37 7.9 NE 6 11 3 6 1024.7 1021.7 0.0
24/08:30am 19.4 17.3 5.8 41 7.1 NE 6 7 3 4 1024.7 1021.7 0.0
24/08:00am 17.6 16.9 8.5 55 4.9 ENE 2 6 1 3 1024.7 1021.7 0.0
24/07:30am 15.6 15.2 8.1 61 4.0 CALM 0 0 0 0 1024.4 1021.4 0.0
24/07:00am 12.6 11.0 8.9 78 2.0 NE 7 9 4 5 1023.8 1020.8 0.0
24/06:30am 10.8 8.8 7.3 79 1.8 ESE 7 9 4 5 1023.5 1020.4 0.0
24/06:00am 11.2 9.2 6.1 71 2.5 ENE 6 7 3 4 1023.4 1020.3 0.0
24/05:30am 12.6 10.7 7.7 72 2.5 NE 7 9 4 5 1022.8 1019.8 0.0
24/05:00am 10.7 8.4 7.4 80 1.7 NE 9 11 5 6 1022.5 1019.4 0.0
24/04:30am 9.8 7.1 7.4 85 1.2 NE 11 13 6 7 1022.4 1019.3 0.0
24/04:00am 9.9 7.2 7.5 85 1.2 NE 11 13 6 7 1022.2 1019.2 0.0
24/03:30am 10.0 7.0 7.6 85 1.2 ENE 13 15 7 8 1022.4 1019.3 0.0
24/03:00am 9.9 7.0 6.4 79 1.7 ENE 11 13 6 7 1022.6 1019.5 0.0
24/02:30am 13.1 12.5 7.3 68 3.0 CALM 0 0 0 0 1022.8 1019.8 0.0
24/02:00am 13.1 11.3 7.3 68 3.0 NE 6 13 3 7 1023.0 1020.0 0.0
24/01:30am 13.9 12.2 7.7 66 3.2 SW 6 7 3 4 1023.2 1020.2 0.0
24/01:00am 13.0 11.1 7.7 70 2.7 NW 7 9 4 5 1023.4 1020.3 0.0
24/12:30am 13.6 12.0 7.8 68 3.0 N 6 7 3 4 1023.7 1020.7 0.0
24/12:00am 14.7 12.8 7.7 63 3.7 ENE 7 15 4 8 1023.8 1020.8 0.0
 
Date/Time
EDT
Temp
°C
App
Temp
°C
Dew
Point
Rel
Hum
%
Delta-T
°C
Wind Press
QNH
hPa
Press
MSL
hPa
Rain
since 9 am
mm
Dir
 
Spd
km/h
Gust
km/h
Spd
kts
Gust
kts
23/11:30pm 15.5 13.7 8.0 61 4.0 ESE 7 11 4 6 1024.0 1021.0 0.0
23/11:00pm 15.3 12.4 8.3 63 3.7 SSE 13 15 7 8 1024.5 1021.5 0.0
23/10:30pm 14.0 12.6 8.8 71 2.8 WNW 6 9 3 5 1024.2 1021.2 0.0
23/10:00pm 14.8 12.3 8.1 64 3.5 NNE 11 19 6 10 1023.9 1020.9 0.0
23/09:30pm 14.9 11.2 7.9 63 3.7 E 17 22 9 12 1023.7 1020.7 0.0
23/09:00pm 15.3 10.5 8.8 65 3.5 ESE 24 30 13 16 1023.7 1020.7 0.0
23/08:30pm 15.3 9.9 8.1 62 3.8 SSE 26 33 14 18 1023.7 1020.7 0.0
23/08:00pm 16.8 12.7 8.0 56 4.7 S 19 20 10 11 1023.2 1020.2 0.0
23/07:30pm 16.4 15.8 8.9 61 4.1 NNE 2 6 1 3 1022.6 1019.5 0.0
23/07:00pm 16.8 14.6 9.2 61 4.2 N 11 13 6 7 1021.9 1018.9 0.0
23/06:30pm 17.5 14.5 7.8 53 5.2 NE 13 17 7 9 1022.0 1019.0 0.0
23/06:00pm 17.8 13.8 9.2 57 4.7 ENE 20 30 11 16 1021.7 1018.6 0.0
23/05:30pm 17.1 13.8 10.9 67 3.5 ENE 19 26 10 14 1022.1 1019.1 0.0
23/05:00pm 18.3 14.6 10.2 59 4.5 ENE 20 26 11 14 1022.0 1019.0 0.0
23/04:30pm 16.9 11.4 9.1 60 4.3 NE 28 33 15 18 1021.7 1018.6 0.0
23/04:05pm 18.2 11.4 7.9 51 5.6 E 33 52 18 28 1021.3 1018.2 0.0
23/04:00pm 18.9 12.8 8.3 50 5.8 E 30 44 16 24 1021.4 1018.3 0.0
23/03:54pm 19.4 13.6 7.8 47 6.3 ESE 28 44 15 24 1021.1 1018.1 0.0
23/03:30pm 24.6 18.5 6.8 32 9.7 SW 28 39 15 21 1020.6 1017.5 0.0
23/03:08pm 24.5 17.8 5.8 30 10.1 SW 30 48 16 26 1020.4 1017.3 0.0
23/03:00pm 23.3 17.2 6.6 34 9.0 SW 28 37 15 20 1020.5 1017.4 0.0
23/02:30pm 24.6 19.4 9.0 37 8.9 W 26 33 14 18 1020.7 1017.6 0.0
23/02:00pm 24.4 19.5 8.4 36 9.0 WSW 24 41 13 22 1020.9 1017.8 0.0
23/01:30pm 23.5 18.9 8.0 37 8.6 WSW 22 35 12 19 1021.5 1018.4 0.0
23/01:00pm 23.4 18.9 10.1 43 7.6 WSW 24 35 13 19 1022.1 1019.1 0.0
23/12:30pm 22.4 16.5 8.9 42 7.6 WSW 30 33 16 18 1022.8 1019.8 0.0
23/12:00pm 21.7 16.1 8.6 43 7.3 WSW 28 37 15 20 1023.1 1020.1 0.0
23/11:30am 21.8 17.2 9.7 46 6.9 W 24 35 13 19 1023.4 1020.3 0.0
23/11:00am 21.1 16.8 9.4 47 6.6 W 22 28 12 15 1023.6 1020.6 0.0
23/10:30am 20.2 15.9 9.5 50 6.0 W 22 32 12 17 1023.8 1020.8 0.0
23/10:00am 19.6 15.8 9.2 51 5.8 WNW 19 26 10 14 1023.8 1020.8 0.0

Other Formats:

Comma delimited format used in spreadsheet applications
http://www.bom.gov.au/fwo/IDN60801/IDN60801.95773.axf

JavaScript Object Notation format (JSON) in row-major order
http://www.bom.gov.au/fwo/IDN60801/IDN60801.95773.json